Time;durP1;ratioP1;P1;durP2;ratioP2;P2;SDS_P1;SDS_P2;PMS_P1;PMS_P2;Temp;Humidity;BMP_temperature;BMP_pressure;BME280_temperature;BME280_humidity;BME280_pressure;Samples;Min_cycle;Max_cycle;Signal;HPM_P1;HPM_P2
2022/03/25 00:01:34;;;;;;;22.50;11.80;;;13.00;42.80;;;;;;5074410;28;20395;-80
2022/03/25 00:03:59;;;;;;;23.90;11.65;;;12.80;43.20;;;;;;5056738;28;20487;-80
2022/03/25 00:06:26;;;;;;;28.17;13.25;;;12.70;43.20;;;;;;5055445;28;20037;-80
2022/03/25 00:08:52;;;;;;;25.10;12.57;;;12.70;43.00;;;;;;5054856;28;20095;-80
2022/03/25 00:11:18;;;;;;;21.10;11.57;;;12.70;43.00;;;;;;5037175;28;20516;-80
2022/03/25 00:13:44;;;;;;;21.33;11.35;;;12.60;43.20;;;;;;5036599;28;20040;-80
2022/03/25 00:16:10;;;;;;;17.98;11.02;;;12.40;43.40;;;;;;5037156;28;20124;-81
2022/03/25 00:18:36;;;;;;;20.17;10.98;;;12.50;43.40;;;;;;5037031;28;20088;-81
2022/03/25 00:21:02;;;;;;;19.48;11.05;;;12.80;43.10;;;;;;5041027;28;20024;-80
2022/03/25 00:23:28;;;;;;;23.33;11.93;;;13.10;43.10;;;;;;5074728;28;20028;-81
2022/03/25 00:25:55;;;;;;;24.70;12.85;;;13.30;42.10;;;;;;5056674;28;20099;-81
2022/03/25 00:28:21;;;;;;;23.27;11.85;;;13.30;41.70;;;;;;5073438;28;20032;-81
2022/03/25 00:30:47;;;;;;;21.38;10.93;;;13.10;41.90;;;;;;5074764;28;20021;-81
2022/03/25 00:33:14;;;;;;;23.83;12.18;;;13.10;41.90;;;;;;5056737;28;20482;-81
2022/03/25 00:35:40;;;;;;;24.55;12.90;;;13.10;42.90;;;;;;5049637;28;20025;-81
2022/03/25 00:38:06;;;;;;;23.70;12.02;;;13.10;42.80;;;;;;5036534;28;20056;-80
2022/03/25 00:40:32;;;;;;;21.77;11.98;;;13.20;42.40;;;;;;5036540;28;20060;-81
2022/03/25 00:42:58;;;;;;;22.92;11.43;;;13.20;41.80;;;;;;5053993;28;20029;-80
2022/03/25 00:45:24;;;;;;;19.38;12.05;;;13.00;42.10;;;;;;5036731;28;20025;-81
2022/03/25 00:47:49;;;;;;;24.15;13.93;;;12.90;42.60;;;;;;5036357;28;20056;-81
2022/03/25 00:50:19;;;;;;;22.40;12.73;;;12.90;43.10;;;;;;5039511;28;20013;-81
2022/03/25 00:52:45;;;;;;;24.13;12.13;;;12.90;43.70;;;;;;5056469;28;20078;-81
2022/03/25 00:55:11;;;;;;;24.65;12.50;;;13.10;43.00;;;;;;5074509;28;20021;-81
2022/03/25 00:57:37;;;;;;;22.63;12.07;;;13.20;42.50;;;;;;5074054;28;20104;-81
2022/03/25 01:00:06;;;;;;;21.77;11.73;;;13.10;42.30;;;;;;5074149;28;20051;-81
2022/03/25 01:02:32;;;;;;;27.83;13.02;;;12.80;43.10;;;;;;5073801;28;20025;-81
2022/03/25 01:04:57;;;;;;;21.77;11.75;;;12.60;44.00;;;;;;5071090;28;20017;-81
2022/03/25 01:07:23;;;;;;;23.25;12.55;;;12.50;43.70;;;;;;5036050;28;20547;-81
2022/03/25 01:09:49;;;;;;;23.40;12.57;;;12.60;43.90;;;;;;5036066;28;20116;-81
2022/03/25 01:12:15;;;;;;;29.05;12.90;;;12.60;43.30;;;;;;5070799;28;20111;-81
2022/03/25 01:14:41;;;;;;;30.08;13.15;;;12.70;43.00;;;;;;5073857;28;20091;-81
2022/03/25 01:17:06;;;;;;;30.25;14.80;;;12.80;42.90;;;;;;5055922;28;20047;-81
2022/03/25 01:19:33;;;;;;;33.00;16.10;;;12.70;43.40;;;;;;5073817;28;20495;-81
2022/03/25 01:21:59;;;;;;;30.38;14.88;;;12.60;43.40;;;;;;5036600;28;20199;-81
2022/03/25 01:24:24;;;;;;;22.98;12.65;;;12.60;43.40;;;;;;5036061;28;20543;-80
2022/03/25 01:26:50;;;;;;;23.85;12.13;;;12.50;43.30;;;;;;5053346;28;20053;-80
2022/03/25 01:29:16;;;;;;;24.10;13.00;;;12.50;43.60;;;;;;5035987;28;20025;-81
2022/03/25 01:31:42;;;;;;;24.98;12.68;;;12.30;43.60;;;;;;5035893;28;20143;-81
2022/03/25 01:34:09;;;;;;;28.10;15.13;;;12.10;43.80;;;;;;5053734;28;20052;-81
2022/03/25 01:36:34;;;;;;;28.98;14.75;;;11.80;44.20;;;;;;5065825;28;20379;-81
2022/03/25 01:39:01;;;;;;;25.58;12.30;;;11.60;44.80;;;;;;5055147;28;20039;-81
2022/03/25 01:41:27;;;;;;;22.73;11.80;;;11.70;45.60;;;;;;5055736;28;20023;-80
2022/03/25 01:43:59;;;;;;;18.92;10.27;;;11.20;46.50;;;;;;5073348;28;20475;-80
2022/03/25 01:46:26;;;;;;;17.98;10.35;;;10.90;47.00;;;;;;5055484;28;20119;-80
2022/03/25 01:48:53;;;;;;;18.05;10.38;;;10.50;48.50;;;;;;5055488;28;20032;-80
2022/03/25 01:51:32;;;;;;;20.40;10.10;;;10.30;47.70;;;;;;5062929;28;20512;-80
2022/03/25 01:54:04;;;;;;;19.23;10.02;;;10.70;47.30;;;;;;5053414;28;20059;-80
2022/03/25 01:56:30;;;;;;;23.42;11.32;;;11.00;46.40;;;;;;5035621;28;20029;-80
2022/03/25 01:59:01;;;;;;;17.98;9.73;;;11.10;46.80;;;;;;5053409;28;20027;-81
2022/03/25 02:01:27;;;;;;;16.60;9.90;;;11.20;45.60;;;;;;5053532;28;20044;-81
2022/03/25 02:03:53;;;;;;;18.75;10.52;;;11.10;46.10;;;;;;5035665;28;20021;-80
2022/03/25 02:06:19;;;;;;;19.88;9.95;;;11.00;47.60;;;;;;5064914;28;20024;-81
2022/03/25 02:08:45;;;;;;;18.73;10.00;;;10.90;47.50;;;;;;5073502;28;20051;-80
2022/03/25 02:11:11;;;;;;;21.48;11.50;;;10.70;47.70;;;;;;5055089;28;20055;-81
2022/03/25 02:13:37;;;;;;;23.38;11.40;;;10.50;48.60;;;;;;5073075;28;20083;-81
2022/03/25 02:16:02;;;;;;;22.52;11.05;;;10.70;48.50;;;;;;5054893;28;20028;-81
2022/03/25 02:18:28;;;;;;;22.02;10.70;;;10.90;49.10;;;;;;5073676;28;20028;-83
2022/03/25 02:20:54;;;;;;;18.92;11.80;;;10.90;49.00;;;;;;5055265;28;20059;-78
2022/03/25 02:23:22;;;;;;;22.50;12.07;;;11.00;49.00;;;;;;5055340;28;20025;-80
2022/03/25 02:25:51;;;;;;;21.13;12.18;;;11.10;48.60;;;;;;5062972;28;20056;-80
2022/03/25 02:28:17;;;;;;;22.92;11.25;;;11.50;47.70;;;;;;5052984;28;20029;-81
2022/03/25 02:30:43;;;;;;;21.20;11.15;;;11.70;46.50;;;;;;5035251;28;20120;-80
2022/03/25 02:33:10;;;;;;;23.30;10.77;;;12.00;45.90;;;;;;5052998;28;20064;-80
2022/03/25 02:35:43;;;;;;;17.30;10.32;;;12.10;45.20;;;;;;5053015;28;20049;-80
2022/03/25 02:38:11;;;;;;;23.23;11.38;;;12.20;44.80;;;;;;5055079;28;20059;-81
2022/03/25 02:40:37;;;;;;;22.38;10.32;;;12.30;44.70;;;;;;5077852;28;20020;-81
2022/03/25 02:43:03;;;;;;;17.73;10.32;;;12.50;44.30;;;;;;5073330;28;20025;-81
2022/03/25 02:45:29;;;;;;;21.38;11.05;;;12.40;44.30;;;;;;5073052;28;20024;-80
2022/03/25 02:47:54;;;;;;;22.05;11.18;;;12.50;44.10;;;;;;5072446;28;20127;-80
2022/03/25 02:50:21;;;;;;;27.08;12.63;;;12.40;44.00;;;;;;5055731;28;20058;-80
2022/03/25 02:52:47;;;;;;;21.88;11.27;;;12.00;44.20;;;;;;5058462;28;20035;-80
2022/03/25 02:55:12;;;;;;;19.17;11.73;;;11.90;44.30;;;;;;5081119;28;20024;-80
2022/03/25 02:57:38;;;;;;;20.38;12.50;;;12.00;44.30;;;;;;5078621;28;20541;-80
2022/03/25 03:00:09;;;;;;;21.77;11.27;;;12.20;44.00;;;;;;5078482;28;20475;-81
2022/03/25 03:02:36;;;;;;;20.02;10.82;;;12.30;44.00;;;;;;5096204;28;20028;-80
2022/03/25 03:05:03;;;;;;;21.55;10.68;;;12.20;44.50;;;;;;5076653;28;20024;-80
2022/03/25 03:07:29;;;;;;;20.20;10.38;;;11.90;45.30;;;;;;5078270;28;20554;-80
2022/03/25 03:09:55;;;;;;;20.77;11.18;;;11.80;45.60;;;;;;5094442;28;20133;-80
2022/03/25 03:12:20;;;;;;;19.30;10.73;;;11.60;45.30;;;;;;5076256;28;20031;-80
2022/03/25 03:14:47;;;;;;;18.33;9.65;;;11.70;45.30;;;;;;5058501;28;20029;-80
2022/03/25 03:17:13;;;;;;;22.45;10.75;;;11.90;45.10;;;;;;5058187;28;20024;-80
2022/03/25 03:19:39;;;;;;;20.58;10.73;;;11.80;44.90;;;;;;5076083;28;20025;-80
2022/03/25 03:22:05;;;;;;;19.30;10.20;;;11.80;45.00;;;;;;5057998;28;20024;-80
2022/03/25 03:24:31;;;;;;;21.02;10.02;;;11.70;45.30;;;;;;5075585;28;20029;-80
2022/03/25 03:26:58;;;;;;;15.55;9.18;;;11.60;45.50;;;;;;5057273;28;20072;-80
2022/03/25 03:29:24;;;;;;;17.05;9.20;;;11.40;45.50;;;;;;5075544;28;20024;-79
2022/03/25 03:31:50;;;;;;;19.42;9.38;;;11.00;46.00;;;;;;5095739;28;20032;-80
2022/03/25 03:34:16;;;;;;;18.80;9.60;;;11.00;45.70;;;;;;5077855;28;20466;-80
2022/03/25 03:36:42;;;;;;;17.80;9.55;;;11.00;45.70;;;;;;5077912;28;20484;-80
2022/03/25 03:39:11;;;;;;;19.48;9.80;;;11.10;45.30;;;;;;5077859;28;20482;-80
2022/03/25 03:41:38;;;;;;;16.90;9.23;;;11.20;44.80;;;;;;5077918;28;20024;-81
2022/03/25 03:44:05;;;;;;;19.30;10.18;;;11.30;44.80;;;;;;5062342;28;20025;-81
2022/03/25 03:46:31;;;;;;;19.23;9.88;;;11.40;44.60;;;;;;5057527;28;20056;-80
2022/03/25 03:48:57;;;;;;;17.60;9.25;;;11.30;44.50;;;;;;5057319;28;20129;-80
2022/03/25 03:51:23;;;;;;;21.05;10.10;;;11.20;45.10;;;;;;5057602;28;20032;-80
2022/03/25 03:53:48;;;;;;;19.80;10.32;;;11.00;45.30;;;;;;5069043;28;20028;-79
2022/03/25 03:56:14;;;;;;;20.88;9.98;;;10.70;45.90;;;;;;5068195;28;20023;-79
2022/03/25 03:58:40;;;;;;;17.20;10.05;;;10.30;46.60;;;;;;5076990;28;20039;-81
2022/03/25 04:01:06;;;;;;;25.15;11.02;;;10.30;45.90;;;;;;5095364;28;20043;-81
2022/03/25 04:03:32;;;;;;;20.92;10.15;;;10.30;46.00;;;;;;5077183;28;20164;-81
2022/03/25 04:05:58;;;;;;;18.00;10.00;;;10.60;46.00;;;;;;5095469;28;20493;-81
2022/03/25 04:08:24;;;;;;;17.83;10.25;;;10.70;45.40;;;;;;5075335;28;20081;-82
2022/03/25 04:10:50;;;;;;;18.27;10.35;;;10.80;45.10;;;;;;5077149;28;20028;-81
2022/03/25 04:13:15;;;;;;;19.67;10.38;;;10.50;45.20;;;;;;5095290;28;20020;-81
2022/03/25 04:15:41;;;;;;;21.67;10.95;;;10.30;45.30;;;;;;5094716;28;20038;-82
2022/03/25 04:18:07;;;;;;;20.50;10.77;;;10.20;45.60;;;;;;5076751;28;20028;-81
2022/03/25 04:20:32;;;;;;;26.67;12.85;;;10.20;45.40;;;;;;5076619;28;20051;-81
2022/03/25 04:22:58;;;;;;;26.85;13.25;;;10.00;45.60;;;;;;5082487;28;20032;-81
2022/03/25 04:25:24;;;;;;;44.67;19.48;;;9.60;46.10;;;;;;5074796;28;20032;-81
2022/03/25 04:27:52;;;;;;;33.38;15.80;;;9.60;46.50;;;;;;5056488;28;20466;-81
2022/03/25 04:30:20;;;;;;;23.85;12.07;;;9.30;46.90;;;;;;5056738;28;20024;-81
2022/03/25 04:32:45;;;;;;;21.75;11.60;;;9.20;47.80;;;;;;5056512;28;20021;-81
2022/03/25 04:35:11;;;;;;;23.55;12.18;;;9.60;47.70;;;;;;5056513;28;20364;-81
2022/03/25 04:37:37;;;;;;;22.20;11.32;;;9.90;47.00;;;;;;5067361;28;20115;-81
2022/03/25 04:40:03;;;;;;;19.83;10.57;;;10.20;46.20;;;;;;5094254;28;20031;-81
2022/03/25 04:42:29;;;;;;;18.85;11.25;;;10.40;45.40;;;;;;5094537;28;20020;-81
2022/03/25 04:44:55;;;;;;;20.92;11.20;;;10.50;45.20;;;;;;5073102;28;20024;-81
2022/03/25 04:47:21;;;;;;;18.38;11.02;;;10.60;44.90;;;;;;5074042;28;20487;-81
2022/03/25 04:49:47;;;;;;;26.15;12.90;;;10.50;44.60;;;;;;5055885;28;20115;-81
2022/03/25 04:52:13;;;;;;;28.38;13.80;;;10.30;45.00;;;;;;5076641;28;20102;-81
2022/03/25 04:54:39;;;;;;;24.90;11.68;;;9.90;45.50;;;;;;5056220;28;20021;-80
2022/03/25 04:57:05;;;;;;;23.38;11.95;;;10.00;45.80;;;;;;5071626;28;20475;-80
2022/03/25 04:59:30;;;;;;;23.75;12.68;;;9.70;46.10;;;;;;5086833;28;20109;-78
2022/03/25 05:01:56;;;;;;;24.20;11.77;;;9.50;46.60;;;;;;5055802;28;20073;-78
2022/03/25 05:04:22;;;;;;;22.95;11.95;;;9.40;46.70;;;;;;5057434;28;20094;-78
2022/03/25 05:06:48;;;;;;;20.90;11.43;;;9.60;46.60;;;;;;5063537;28;20176;-78
2022/03/25 05:09:13;;;;;;;20.55;11.43;;;9.70;46.40;;;;;;5058953;28;20048;-79
2022/03/25 05:11:39;;;;;;;28.10;11.15;;;10.00;45.80;;;;;;5055393;28;20043;-78
2022/03/25 05:14:05;;;;;;;21.65;11.20;;;10.20;45.30;;;;;;5055075;28;20055;-79
2022/03/25 05:16:31;;;;;;;19.70;10.80;;;10.20;45.20;;;;;;5055308;28;20035;-79
2022/03/25 05:18:57;;;;;;;21.42;11.55;;;10.40;45.00;;;;;;5073373;28;20028;-79
2022/03/25 05:21:22;;;;;;;22.30;11.07;;;10.50;45.20;;;;;;5055214;28;20070;-78
2022/03/25 05:23:48;;;;;;;24.33;11.35;;;10.70;45.00;;;;;;5054949;28;20029;-78
2022/03/25 05:26:14;;;;;;;22.55;11.13;;;10.70;45.10;;;;;;5054602;28;20511;-79
2022/03/25 05:28:39;;;;;;;19.88;10.65;;;10.70;45.10;;;;;;5054924;28;20441;-77
2022/03/25 05:31:05;;;;;;;22.63;11.63;;;10.90;45.00;;;;;;5055182;28;20028;-78
2022/03/25 05:33:31;;;;;;;19.70;10.88;;;11.10;44.70;;;;;;5055958;28;20483;-80
2022/03/25 05:35:57;;;;;;;21.48;11.48;;;11.30;44.60;;;;;;5072207;28;20476;-80
2022/03/25 05:38:23;;;;;;;20.42;12.23;;;11.60;44.40;;;;;;5072499;28;20031;-80
2022/03/25 05:40:49;;;;;;;20.67;11.65;;;11.50;44.40;;;;;;5083670;28;20016;-80
2022/03/25 05:43:14;;;;;;;22.30;11.82;;;11.20;44.50;;;;;;5090888;28;20057;-79
2022/03/25 05:45:40;;;;;;;22.77;12.77;;;11.20;45.10;;;;;;5073190;28;20047;-79
2022/03/25 05:48:06;;;;;;;20.33;11.05;;;11.30;45.40;;;;;;5073185;28;20062;-79
2022/03/25 05:50:33;;;;;;;20.77;11.63;;;11.50;45.00;;;;;;4732906;28;10000370;-79
2022/03/25 05:52:58;;;;;;;22.23;11.90;;;11.60;44.80;;;;;;5071997;28;20085;-79
2022/03/25 05:55:24;;;;;;;30.23;12.65;;;11.50;44.90;;;;;;5067254;28;20024;-79
2022/03/25 05:57:50;;;;;;;20.15;11.60;;;11.50;45.30;;;;;;5070691;28;20419;-79
2022/03/25 06:00:17;;;;;;;23.27;11.77;;;11.30;45.40;;;;;;5070634;28;20045;-79
2022/03/25 06:02:44;;;;;;;21.95;12.30;;;11.20;45.70;;;;;;5059752;28;20473;-78
2022/03/25 06:05:10;;;;;;;23.27;12.27;;;11.10;45.90;;;;;;5062985;28;20380;-77
2022/03/25 06:07:41;;;;;;;22.92;12.02;;;11.20;46.10;;;;;;5054213;28;20048;-79
2022/03/25 06:10:08;;;;;;;21.48;12.30;;;11.30;46.10;;;;;;5054454;28;20021;-79
2022/03/25 06:12:35;;;;;;;24.50;13.30;;;11.50;45.50;;;;;;5053358;28;20071;-79
2022/03/25 06:15:01;;;;;;;21.77;12.05;;;11.50;45.70;;;;;;5071057;28;20438;-80
2022/03/25 06:17:27;;;;;;;22.25;12.95;;;11.60;45.50;;;;;;5053705;28;20131;-79
2022/03/25 06:19:53;;;;;;;20.88;11.93;;;11.90;45.50;;;;;;5052909;28;20115;-80
2022/03/25 06:22:19;;;;;;;24.42;12.52;;;12.10;45.20;;;;;;5053337;28;20383;-79
2022/03/25 06:24:45;;;;;;;24.10;12.63;;;12.30;44.70;;;;;;5054320;28;20032;-80
2022/03/25 06:27:11;;;;;;;24.55;13.32;;;12.30;45.10;;;;;;5075718;28;20051;-80
2022/03/25 06:29:38;;;;;;;28.05;14.65;;;12.40;44.70;;;;;;5058179;28;20046;-80
2022/03/25 06:32:05;;;;;;;23.52;12.68;;;12.40;45.20;;;;;;5058556;28;20025;-80
2022/03/25 06:34:31;;;;;;;26.13;14.10;;;12.40;44.70;;;;;;5058169;28;20411;-78
2022/03/25 06:36:57;;;;;;;24.38;13.30;;;12.00;45.60;;;;;;5058170;28;20024;-79
2022/03/25 06:39:22;;;;;;;24.25;13.25;;;12.30;45.30;;;;;;5076201;28;20112;-79
2022/03/25 06:41:48;;;;;;;22.75;13.02;;;12.70;45.10;;;;;;5058429;28;20029;-80
2022/03/25 06:44:14;;;;;;;22.33;13.25;;;12.80;45.20;;;;;;5058562;28;20028;-80
2022/03/25 06:46:40;;;;;;;23.27;13.90;;;12.80;44.60;;;;;;5058335;28;20048;-80
2022/03/25 06:49:06;;;;;;;24.15;12.82;;;12.90;44.90;;;;;;5076215;28;20029;-79
2022/03/25 06:51:32;;;;;;;22.10;12.80;;;13.20;44.50;;;;;;5076002;28;20020;-80
2022/03/25 06:53:58;;;;;;;26.77;13.90;;;13.50;44.10;;;;;;5075916;28;20028;-81
2022/03/25 06:56:24;;;;;;;29.13;13.57;;;13.90;43.70;;;;;;5057831;28;20044;-80
2022/03/25 06:58:50;;;;;;;25.42;13.95;;;14.10;43.50;;;;;;5058010;28;20039;-81
2022/03/25 07:01:16;;;;;;;23.77;13.75;;;13.60;43.80;;;;;;5057960;28;20024;-81
2022/03/25 07:03:43;;;;;;;27.02;14.13;;;13.80;43.80;;;;;;5058125;28;20379;-82
2022/03/25 07:06:09;;;;;;;25.58;13.75;;;14.40;43.30;;;;;;5057384;28;20395;-80
2022/03/25 07:08:38;;;;;;;23.23;14.05;;;14.50;42.90;;;;;;5075127;28;20049;-79
2022/03/25 07:11:05;;;;;;;25.08;13.45;;;14.40;43.40;;;;;;5057171;28;20155;-80
2022/03/25 07:13:31;;;;;;;25.65;13.73;;;14.40;43.10;;;;;;5075679;28;20028;-80
2022/03/25 07:15:57;;;;;;;25.15;13.32;;;14.50;43.10;;;;;;5057834;28;20028;-81
2022/03/25 07:18:23;;;;;;;23.15;13.35;;;14.70;42.50;;;;;;5057437;28;20074;-80
2022/03/25 07:20:49;;;;;;;23.48;13.25;;;14.90;42.70;;;;;;5057289;28;20455;-80
2022/03/25 07:23:14;;;;;;;29.00;14.57;;;14.90;42.50;;;;;;5057657;28;20039;-80
2022/03/25 07:25:40;;;;;;;22.08;12.75;;;15.20;42.40;;;;;;5075329;28;20035;-78
2022/03/25 07:28:06;;;;;;;22.88;13.88;;;15.80;42.00;;;;;;5057218;28;20432;-79
2022/03/25 07:30:31;;;;;;;27.48;14.43;;;16.00;42.00;;;;;;5075289;28;20569;-81
2022/03/25 07:32:58;;;;;;;27.52;13.40;;;16.30;41.20;;;;;;5057374;28;20035;-79
2022/03/25 07:35:24;;;;;;;25.45;14.32;;;16.60;41.30;;;;;;5075110;28;20023;-79
2022/03/25 07:37:49;;;;;;;24.15;14.93;;;16.80;41.10;;;;;;5056665;28;20394;-79
2022/03/25 07:40:15;;;;;;;23.75;14.23;;;17.50;40.50;;;;;;5057042;28;20029;-79
2022/03/25 07:42:43;;;;;;;27.27;14.50;;;18.50;39.30;;;;;;5056945;28;20060;-79
2022/03/25 07:45:11;;;;;;;22.60;13.75;;;19.80;36.90;;;;;;5056829;28;20025;-78
2022/03/25 07:47:49;;;;;;;23.52;14.23;;;20.50;36.30;;;;;;5074693;28;20042;-78
2022/03/25 07:50:18;;;;;;;22.45;13.98;;;21.10;36.30;;;;;;5074551;28;20021;-79
2022/03/25 07:52:44;;;;;;;28.30;15.15;;;22.10;35.50;;;;;;5056699;28;20043;-79
2022/03/25 07:55:10;;;;;;;38.25;15.38;;;22.90;34.80;;;;;;5074816;28;20029;-79
2022/03/25 07:57:40;;;;;;;27.05;13.68;;;23.90;34.40;;;;;;5074589;28;20021;-80
2022/03/25 08:00:11;;;;;;;22.60;13.40;;;24.70;33.80;;;;;;5074649;28;20028;-80
2022/03/25 08:02:41;;;;;;;23.90;14.55;;;25.60;33.20;;;;;;5056580;28;20021;-79
2022/03/25 08:05:09;;;;;;;24.80;14.45;;;25.70;33.40;;;;;;5056803;28;20479;-79
2022/03/25 08:08:02;;;;;;;23.33;14.18;;;25.80;33.60;;;;;;5056410;28;20054;-79
2022/03/25 08:10:30;;;;;;;22.00;13.32;;;26.60;32.80;;;;;;5053372;28;20036;-80
2022/03/25 08:12:56;;;;;;;22.77;13.57;;;27.30;32.40;;;;;;5056678;28;20028;-80
2022/03/25 08:15:24;;;;;;;22.73;14.60;;;27.90;31.90;;;;;;5056297;28;20024;-80
2022/03/25 08:18:03;;;;;;;23.75;13.40;;;28.10;32.00;;;;;;5056186;28;20036;-79
2022/03/25 08:20:33;;;;;;;18.38;12.18;;;28.10;31.40;;;;;;4722966;28;10001080;-80
2022/03/25 08:22:59;;;;;;;20.88;12.50;;;28.90;31.20;;;;;;5054361;28;20032;-80
2022/03/25 08:28:11;;;;;;;22.90;12.82;;;29.50;31.30;;;;;;5072942;28;20493;-80
2022/03/25 08:30:38;;;;;;;22.80;12.18;;;29.90;31.20;;;;;;5056165;28;20171;-81
2022/03/25 08:33:04;;;;;;;21.70;13.00;;;30.20;30.90;;;;;;5056113;28;20028;-80
2022/03/25 08:35:31;;;;;;;21.40;12.88;;;30.00;29.80;;;;;;5055735;28;20102;-80
2022/03/25 08:37:57;;;;;;;26.15;13.82;;;30.10;30.40;;;;;;5073663;28;20032;-80
2022/03/25 08:40:25;;;;;;;25.83;12.65;;;29.90;29.80;;;;;;5055889;28;20111;-80
2022/03/25 08:42:51;;;;;;;27.13;15.75;;;29.60;30.00;;;;;;5055846;28;20421;-80
2022/03/25 08:45:17;;;;;;;24.83;15.63;;;30.10;29.90;;;;;;5073485;28;20020;-81
2022/03/25 08:47:48;;;;;;;30.38;17.13;;;30.90;29.70;;;;;;5055014;28;20094;-81
2022/03/25 08:50:14;;;;;;;;;;;30.90;28.80;;;;;;5055994;28;20532;-81
2022/03/25 08:52:41;;;;;;;29.42;16.92;;;30.50;29.20;;;;;;5072373;28;19909;-80
2022/03/25 08:55:09;;;;;;;32.40;18.08;;;30.80;29.10;;;;;;5073433;28;20414;-80
2022/03/25 08:57:35;;;;;;;30.77;17.10;;;30.90;28.80;;;;;;5055483;28;20023;-81
2022/03/25 09:00:01;;;;;;;31.50;17.48;;;30.10;28.80;;;;;;5055804;28;20138;-80
2022/03/25 09:02:27;;;;;;;30.08;17.42;;;29.40;29.10;;;;;;5073705;28;20020;-81
2022/03/25 09:04:52;;;;;;;32.40;17.80;;;29.40;29.10;;;;;;5073255;28;20020;-81
2022/03/25 09:07:18;;;;;;;26.35;17.55;;;29.20;29.10;;;;;;5072967;28;20398;-80
2022/03/25 09:09:44;;;;;;;26.42;17.45;;;29.10;29.50;;;;;;5073552;28;20030;-80
2022/03/25 09:12:09;;;;;;;29.38;16.95;;;29.20;29.10;;;;;;5073301;28;20063;-81
2022/03/25 09:14:35;;;;;;;35.10;16.85;;;29.60;29.40;;;;;;5073325;28;20039;-80
2022/03/25 09:17:01;;;;;;;57.20;18.20;;;29.70;28.90;;;;;;5055366;28;20040;-81
2022/03/25 09:19:27;;;;;;;24.75;17.00;;;29.80;29.20;;;;;;5073573;28;20040;-80
2022/03/25 09:21:53;;;;;;;25.63;17.20;;;30.50;28.70;;;;;;5073414;28;20124;-81
2022/03/25 09:24:19;;;;;;;27.58;17.40;;;30.50;28.70;;;;;;5055621;28;20021;-80
2022/03/25 09:26:45;;;;;;;28.52;16.75;;;30.90;28.70;;;;;;5055032;28;20094;-80
2022/03/25 09:29:11;;;;;;;26.73;17.65;;;32.00;28.90;;;;;;5055423;28;20028;-81
2022/03/25 09:31:38;;;;;;;27.13;15.98;;;31.60;28.40;;;;;;5055402;28;20112;-80
2022/03/25 09:36:49;;;;;;;29.10;15.40;;;32.10;28.70;;;;;;5073852;28;20121;-83
2022/03/25 09:39:14;;;;;;;25.75;15.85;;;32.30;28.70;;;;;;5055964;28;20066;-81
2022/03/25 09:41:40;;;;;;;25.55;15.15;;;31.60;28.50;;;;;;5073527;28;20037;-82
2022/03/25 09:44:16;;;;;;;21.77;14.80;;;31.50;28.40;;;;;;5055729;28;20020;-82
2022/03/25 09:46:43;;;;;;;22.00;15.15;;;31.60;28.70;;;;;;5055447;28;20032;-81
2022/03/25 09:49:12;;;;;;;23.50;14.88;;;32.30;28.50;;;;;;5073236;28;20035;-82
2022/03/25 09:51:40;;;;;;;20.63;14.52;;;32.50;28.20;;;;;;5055444;28;20145;-80
2022/03/25 09:54:11;;;;;;;23.52;15.15;;;33.10;29.00;;;;;;5055248;28;20024;-79
2022/03/25 09:56:37;;;;;;;23.27;14.07;;;34.10;28.30;;;;;;5055352;28;20793;-83
2022/03/25 09:59:03;;;;;;;22.88;13.73;;;34.90;28.70;;;;;;5073266;28;20467;-82
2022/03/25 10:01:28;;;;;;;20.42;12.65;;;35.20;28.00;;;;;;5059326;28;20025;-81
2022/03/25 10:03:54;;;;;;;19.58;12.80;;;35.50;28.00;;;;;;5077235;28;20375;-81
2022/03/25 10:06:20;;;;;;;18.25;11.60;;;34.80;27.80;;;;;;5059647;28;20029;-79
2022/03/25 10:08:59;;;;;;;23.98;13.00;;;33.40;28.00;;;;;;5059120;28;20033;-83
2022/03/25 10:11:32;;;;;;;75.68;15.18;;;32.40;28.20;;;;;;5075652;28;20055;-84
2022/03/25 10:14:14;;;;;;;19.23;12.55;;;32.40;28.30;;;;;;5057221;28;20020;-82
2022/03/25 10:16:41;;;;;;;17.23;11.73;;;32.10;28.30;;;;;;5057298;28;20402;-82
2022/03/25 10:19:09;;;;;;;17.83;12.18;;;32.50;28.70;;;;;;5057598;28;20466;-82
2022/03/25 10:21:55;;;;;;;20.33;11.93;;;33.30;28.40;;;;;;5075309;28;20056;-83
2022/03/25 10:24:44;;;;;;;21.38;11.13;;;33.70;29.10;;;;;;5058530;28;20422;-82
2022/03/25 10:27:11;;;;;;;14.38;8.10;;;34.00;28.30;;;;;;5059005;28;20064;-82
2022/03/25 10:29:37;;;;;;;11.88;8.02;;;33.40;28.10;;;;;;5076506;28;20520;-84
2022/03/25 10:32:08;;;;;;;14.23;8.38;;;33.80;28.20;;;;;;5058646;28;20066;-81
2022/03/25 10:34:38;;;;;;;18.33;9.93;;;33.70;28.40;;;;;;5076960;28;20025;-82
2022/03/25 10:37:11;;;;;;;13.80;7.18;;;34.90;28.30;;;;;;5076405;28;20152;-82
2022/03/25 10:39:37;;;;;;;11.38;6.72;;;35.00;28.30;;;;;;5058998;28;20024;-83
2022/03/25 10:42:18;;;;;;;11.25;7.13;;;34.70;28.50;;;;;;5060425;28;20044;-84
2022/03/25 10:44:53;;;;;;;;;;;34.90;28.10;;;;;;5054763;28;20535;-82
2022/03/25 10:47:22;;;;;;;17.38;9.00;;;34.50;28.00;;;;;;5069108;28;19938;-82
2022/03/25 10:49:49;;;;;;;14.07;9.20;;;34.70;28.30;;;;;;5071900;28;20016;-83
2022/03/25 10:52:30;;;;;;;13.20;8.27;;;35.00;27.90;;;;;;5059506;28;20067;-82
2022/03/25 10:55:15;;;;;;;18.08;9.50;;;35.50;28.20;;;;;;5078638;28;20047;-81
2022/03/25 10:57:48;;;;;;;15.52;10.10;;;36.10;28.40;;;;;;5059468;28;20406;-81
2022/03/25 11:00:14;;;;;;;11.60;7.15;;;35.50;28.20;;;;;;5061377;28;20020;-81
2022/03/25 11:02:42;;;;;;;14.85;7.10;;;36.00;28.10;;;;;;5062961;28;20047;-83
2022/03/25 11:05:09;;;;;;;12.15;7.60;;;35.80;28.50;;;;;;5062190;28;20111;-82
2022/03/25 11:07:39;;;;;;;12.20;7.70;;;36.20;28.30;;;;;;5060864;28;20087;-84
2022/03/25 11:10:05;;;;;;;15.00;7.70;;;36.20;28.10;;;;;;5076273;28;20026;-83
2022/03/25 11:12:32;;;;;;;14.63;8.38;;;35.40;28.10;;;;;;5057926;28;20032;-83
2022/03/25 11:14:59;;;;;;;16.35;9.35;;;33.10;28.10;;;;;;5075737;28;20024;-81
2022/03/25 11:17:26;;;;;;;15.20;9.30;;;31.20;28.90;;;;;;5057484;28;20123;-82
2022/03/25 11:19:53;;;;;;;18.50;10.00;;;30.00;29.00;;;;;;5058219;28;20078;-81
2022/03/25 11:22:20;;;;;;;18.73;11.00;;;28.80;29.10;;;;;;5057394;28;20025;-82
2022/03/25 11:24:52;;;;;;;18.08;11.70;;;28.00;29.40;;;;;;5057765;28;20024;-81
2022/03/25 11:27:21;;;;;;;19.55;12.32;;;27.10;29.30;;;;;;5075258;28;20135;-81
2022/03/25 11:29:51;;;;;;;19.63;12.45;;;26.70;29.70;;;;;;5057659;28;20028;-81
2022/03/25 11:32:17;;;;;;;18.50;12.30;;;26.60;29.70;;;;;;5057341;28;20024;-80
2022/03/25 11:35:06;;;;;;;20.30;12.52;;;26.80;29.60;;;;;;5075374;28;20056;-81
2022/03/25 11:37:33;;;;;;;19.40;11.80;;;26.60;30.40;;;;;;5056958;28;20025;-80
2022/03/25 11:40:25;;;;;;;18.52;11.05;;;26.20;29.90;;;;;;5075423;28;20028;-81
2022/03/25 11:42:53;;;;;;;17.40;10.93;;;26.30;30.30;;;;;;5075081;28;20082;-81
2022/03/25 11:45:22;;;;;;;17.50;10.85;;;26.10;30.20;;;;;;5058243;28;20082;-81
2022/03/25 11:48:00;;;;;;;20.80;11.27;;;26.20;29.80;;;;;;5057860;28;20044;-81
2022/03/25 11:50:32;;;;;;;15.82;10.48;;;26.00;29.80;;;;;;5076567;28;20028;-81
2022/03/25 11:53:24;;;;;;;15.48;9.93;;;26.00;29.80;;;;;;5075497;28;20375;-80
2022/03/25 11:56:02;;;;;;;17.48;10.98;;;25.90;29.70;;;;;;5057517;28;20092;-81
2022/03/25 11:58:32;;;;;;;18.17;9.57;;;25.50;29.80;;;;;;5057323;28;20024;-81
2022/03/25 12:01:03;;;;;;;;;;;25.50;29.80;;;;;;5058374;28;20025;-81
2022/03/25 12:03:49;;;;;;;16.23;9.40;;;25.50;30.10;;;;;;5076751;28;19904;-81
2022/03/25 12:06:20;;;;;;;19.13;9.70;;;25.60;29.60;;;;;;5057416;28;20066;-81
2022/03/25 12:09:08;;;;;;;14.75;9.40;;;25.90;30.00;;;;;;5059185;28;20033;-81
2022/03/25 12:11:55;;;;;;;17.70;9.25;;;26.00;29.80;;;;;;5076853;28;20021;-83
2022/03/25 12:14:31;;;;;;;15.60;8.93;;;26.00;29.50;;;;;;5059139;28;20466;-82
2022/03/25 12:17:12;;;;;;;13.30;8.30;;;25.90;29.60;;;;;;5057041;28;20039;-80
2022/03/25 12:19:48;;;;;;;;;;;25.70;29.50;;;;;;5074805;28;20119;-83
2022/03/25 12:22:19;;;;;;;14.43;8.32;;;26.00;30.00;;;;;;5056697;28;19958;-83
2022/03/25 12:24:52;;;;;;;14.35;8.55;;;25.70;29.40;;;;;;5074168;28;20032;-81
2022/03/25 12:27:18;;;;;;;13.15;7.20;;;25.80;29.40;;;;;;5073945;28;20399;-81
2022/03/25 12:29:54;;;;;;;12.43;7.70;;;26.00;28.70;;;;;;5074155;28;20081;-80
2022/03/25 12:32:40;;;;;;;12.27;7.45;;;26.10;28.50;;;;;;5074104;28;20029;-81
2022/03/25 12:35:48;;;;;;;12.15;7.18;;;25.80;29.20;;;;;;4957415;28;20031;-81
2022/03/25 12:38:22;;;;;;;10.65;6.65;;;25.80;29.50;;;;;;4957208;28;20122;-81
2022/03/25 12:40:56;;;;;;;10.95;6.72;;;25.40;28.50;;;;;;4957229;28;20332;-82